Terminal Aerodrome Forecast
Issued by NWS

Current Version | Previous Version | Text Only | Print | Product List | Glossary Off
Versions: 1 2 3 4 5 6 7 8 9 10 11 12 13 14 15 16 17 18 19 20 21 22 23 24 25 26 27 28 29 30 31 32 33 34

033
FTUS41 KRNK 200520
TAFLWB
TAF
KLWB 200520Z 2006/2106 VRB03KT P6SM SCT030 OVC150
      TEMPO 2006/2008 BKN030
     FM200800 VRB03KT P6SM BKN028 OVC080
     FM201200 10005KT 4SM -RA BR BKN009 OVC015
      TEMPO 2014/2016 1SM RA BR BKN007 OVC013
     FM201800 VRB03KT 4SM -DZ BR BKN009 OVC012
     FM202300 00000KT 3SM -DZ BR OVC007=

USA.gov is the U.S. government's official web portal to all federal, state and local government web resources and services.